createdAt,value
2022-07-26T00:00:51.166Z,63.38
2022-07-26T00:03:18.208Z,63.85
2022-07-26T00:05:45.221Z,64.09
2022-07-26T00:08:12.571Z,64.26
2022-07-26T00:10:43.435Z,64.14
2022-07-26T00:13:11.002Z,64.22
2022-07-26T00:15:39.241Z,64.65
2022-07-26T00:18:11.865Z,64.74
2022-07-26T00:20:41.471Z,64.82
2022-07-26T00:23:08.705Z,65.42
2022-07-26T00:25:35.963Z,65.33
2022-07-26T00:28:03.284Z,65.40
2022-07-26T00:30:30.624Z,65.29
2022-07-26T00:32:57.679Z,65.23
2022-07-26T00:35:25.090Z,65.81
2022-07-26T00:37:52.653Z,65.44
2022-07-26T00:40:20.215Z,66.31
2022-07-26T00:42:47.515Z,66.35
2022-07-26T00:45:15.532Z,66.31
2022-07-26T00:47:42.941Z,66.10
2022-07-26T00:50:13.425Z,66.14
2022-07-26T00:52:43.099Z,66.41
2022-07-26T00:55:10.603Z,67.25
2022-07-26T00:57:39.457Z,67.29
2022-07-26T01:00:10.337Z,67.43
2022-07-26T01:02:38.288Z,67.80
2022-07-26T01:05:07.042Z,67.97
2022-07-26T01:07:34.721Z,67.88
2022-07-26T01:10:03.248Z,67.44
2022-07-26T01:12:30.509Z,67.77
2022-07-26T01:14:57.520Z,68.03
2022-07-26T01:17:24.645Z,67.96
2022-07-26T01:19:51.947Z,67.84
2022-07-26T01:22:18.957Z,67.88
2022-07-26T01:24:45.998Z,68.39
2022-07-26T01:27:13.830Z,68.53
2022-07-26T01:29:41.260Z,68.78
2022-07-26T01:32:08.803Z,68.59
2022-07-26T01:34:36.070Z,68.43
2022-07-26T01:37:03.837Z,68.57
2022-07-26T01:39:30.875Z,69.00
2022-07-26T01:41:59.373Z,69.06
2022-07-26T01:44:26.512Z,68.83
2022-07-26T01:46:53.466Z,69.20
2022-07-26T01:49:21.051Z,69.74
2022-07-26T01:51:48.395Z,69.72
2022-07-26T01:54:15.370Z,69.91
2022-07-26T01:56:49.939Z,69.63
2022-07-26T01:59:17.001Z,69.43
2022-07-26T02:01:44.070Z,69.69
2022-07-26T02:04:31.412Z,69.99
2022-07-26T02:06:58.434Z,70.09
2022-07-26T02:09:25.916Z,70.05
2022-07-26T02:11:55.155Z,69.79
2022-07-26T02:14:25.749Z,69.78
2022-07-26T02:17:00.076Z,70.30
2022-07-26T02:19:31.582Z,69.82
2022-07-26T02:21:59.217Z,70.13
2022-07-26T02:24:30.779Z,70.69
2022-07-26T02:26:59.591Z,70.84
2022-07-26T02:29:28.238Z,71.33
2022-07-26T02:31:56.455Z,71.41
2022-07-26T02:34:23.703Z,71.45
2022-07-26T02:36:51.056Z,71.57
2022-07-26T02:39:18.401Z,71.39
2022-07-26T02:41:45.634Z,71.54
2022-07-26T02:44:13.087Z,71.38
2022-07-26T02:46:40.242Z,71.61
2022-07-26T02:49:07.557Z,71.57
2022-07-26T02:51:34.968Z,71.62
2022-07-26T02:54:01.981Z,71.66
2022-07-26T02:56:29.038Z,71.43
2022-07-26T02:58:56.467Z,71.64
2022-07-26T03:01:23.787Z,71.71
2022-07-26T03:03:51.293Z,71.39
2022-07-26T03:06:20.106Z,71.30
2022-07-26T03:08:48.390Z,71.94
2022-07-26T03:11:16.107Z,71.66
2022-07-26T03:13:43.384Z,71.19
2022-07-26T03:16:10.893Z,71.02
2022-07-26T03:18:38.063Z,70.35
2022-07-26T03:21:05.483Z,70.27
2022-07-26T03:23:33.720Z,69.13
2022-07-26T03:26:02.851Z,66.46
2022-07-26T03:28:32.158Z,65.46
2022-07-26T03:30:59.769Z,63.67
2022-07-26T03:33:26.940Z,64.07
2022-07-26T03:35:54.342Z,63.37
2022-07-26T03:38:21.898Z,62.46
2022-07-26T03:40:48.973Z,61.86
2022-07-26T03:43:17.410Z,60.58
2022-07-26T03:45:47.134Z,58.88
2022-07-26T03:48:14.304Z,57.78
2022-07-26T03:50:41.780Z,57.66
2022-07-26T03:53:09.161Z,54.66
2022-07-26T03:55:54.709Z,54.10
2022-07-26T03:58:22.262Z,53.30
2022-07-26T04:00:49.385Z,52.63
2022-07-26T04:03:19.099Z,52.59
2022-07-26T04:05:48.858Z,49.86
2022-07-26T04:08:18.132Z,49.31
2022-07-26T04:10:47.336Z,47.15
2022-07-26T04:13:14.947Z,47.38
2022-07-26T04:15:41.939Z,45.04
2022-07-26T04:18:10.321Z,44.28
2022-07-26T04:20:38.592Z,44.43
2022-07-26T04:23:10.735Z,44.14
2022-07-26T04:25:41.947Z,43.34
2022-07-26T04:28:10.584Z,43.45
2022-07-26T04:30:38.755Z,43.80
2022-07-26T04:33:07.048Z,43.90
2022-07-26T04:35:36.614Z,43.50
2022-07-26T04:38:04.258Z,43.59
2022-07-26T04:40:34.873Z,42.11
2022-07-26T04:43:09.115Z,41.15
2022-07-26T04:45:42.623Z,41.53
2022-07-26T04:48:09.673Z,40.03
2022-07-26T04:50:36.743Z,40.22
2022-07-26T04:53:04.120Z,40.94
2022-07-26T04:55:31.305Z,41.13
2022-07-26T04:57:58.578Z,42.47
2022-07-26T05:00:28.782Z,40.39
2022-07-26T05:03:00.399Z,40.82
2022-07-26T05:08:37.841Z,39.16
2022-07-26T05:11:05.311Z,39.74
2022-07-26T05:13:32.492Z,37.90
2022-07-26T05:16:11.838Z,37.86
2022-07-26T05:18:45.528Z,37.49
2022-07-26T05:21:14.443Z,37.12
2022-07-26T05:23:41.781Z,38.08
2022-07-26T05:26:08.779Z,38.58
2022-07-26T05:28:38.779Z,37.15
2022-07-26T05:31:07.730Z,37.58
2022-07-26T05:33:36.436Z,37.30
2022-07-26T05:36:03.791Z,37.29
2022-07-26T05:38:31.103Z,37.15
2022-07-26T05:40:58.675Z,36.00
2022-07-26T05:43:41.080Z,35.70
2022-07-26T05:46:24.046Z,35.73
2022-07-26T05:48:51.338Z,35.49
2022-07-26T05:51:19.355Z,34.40
2022-07-26T05:53:47.441Z,34.28
2022-07-26T05:56:15.208Z,35.02
2022-07-26T05:58:46.396Z,35.67
2022-07-26T06:01:13.493Z,36.82
2022-07-26T06:03:40.859Z,37.90
2022-07-26T06:06:19.767Z,38.17
2022-07-26T06:08:47.166Z,38.88
2022-07-26T06:11:14.602Z,39.42
2022-07-26T06:13:42.011Z,40.13
2022-07-26T06:16:09.635Z,41.29
2022-07-26T06:18:37.156Z,41.59
2022-07-26T06:21:05.541Z,42.10
2022-07-26T06:23:35.139Z,42.10
2022-07-26T06:26:04.980Z,42.45
2022-07-26T06:28:32.882Z,42.77
2022-07-26T06:30:59.949Z,43.38
2022-07-26T06:33:27.500Z,43.63
2022-07-26T06:35:54.673Z,43.62
2022-07-26T06:38:22.395Z,44.69
2022-07-26T06:40:49.916Z,44.89
2022-07-26T06:43:17.083Z,44.66
2022-07-26T06:45:44.372Z,44.46
2022-07-26T06:48:12.607Z,44.55
2022-07-26T06:50:42.851Z,44.27
2022-07-26T06:53:09.984Z,44.54
2022-07-26T06:55:44.011Z,45.39
2022-07-26T06:58:16.944Z,45.69
2022-07-26T07:00:44.369Z,44.92
2022-07-26T07:03:16.504Z,44.93
2022-07-26T07:05:49.432Z,44.70
2022-07-26T07:08:18.927Z,44.55
2022-07-26T07:11:08.158Z,43.68
2022-07-26T07:13:50.860Z,43.17
2022-07-26T07:16:18.493Z,42.82
2022-07-26T07:18:51.486Z,43.19
2022-07-26T07:21:22.065Z,42.55
2022-07-26T07:24:00.099Z,42.54
2022-07-26T07:30:29.822Z,42.72
2022-07-26T07:32:57.605Z,42.45
2022-07-26T07:35:31.769Z,42.80
2022-07-26T07:38:02.121Z,41.73
2022-07-26T07:40:30.136Z,41.01
2022-07-26T07:42:58.400Z,40.69
2022-07-26T07:45:26.053Z,41.29
2022-07-26T07:47:53.176Z,41.77
2022-07-26T07:50:28.321Z,40.62
2022-07-26T07:52:59.180Z,39.95
2022-07-26T07:55:44.144Z,40.27
2022-07-26T07:58:15.868Z,40.27
2022-07-26T08:00:48.459Z,40.65
2022-07-26T08:03:17.843Z,40.10
2022-07-26T08:05:50.743Z,39.21
2022-07-26T08:08:22.906Z,39.36
2022-07-26T08:10:53.148Z,39.67
2022-07-26T08:13:26.518Z,39.92
2022-07-26T08:15:56.346Z,38.49
2022-07-26T08:18:24.391Z,37.44
2022-07-26T08:20:52.256Z,37.71
2022-07-26T08:23:21.412Z,37.13
2022-07-26T08:25:57.038Z,37.73
2022-07-26T08:31:21.941Z,36.04
2022-07-26T08:33:49.685Z,35.01
2022-07-26T08:37:16.082Z,32.46
2022-07-26T08:39:44.226Z,30.73
2022-07-26T08:45:03.952Z,29.30
2022-07-26T08:47:39.869Z,27.82
2022-07-26T08:50:10.092Z,25.78
2022-07-26T08:52:41.134Z,26.16
2022-07-26T08:55:12.362Z,26.17
2022-07-26T08:57:40.198Z,25.99
2022-07-26T09:00:19.154Z,25.38
2022-07-26T09:02:47.218Z,24.31
2022-07-26T09:07:58.106Z,23.81
2022-07-26T09:10:25.903Z,22.90
2022-07-26T09:12:54.545Z,23.86
2022-07-26T09:15:27.106Z,24.30
2022-07-26T09:18:04.467Z,22.68
2022-07-26T09:20:47.163Z,23.68
2022-07-26T09:23:16.447Z,22.80
2022-07-26T09:25:45.802Z,23.01
2022-07-26T09:28:24.686Z,23.37
2022-07-26T09:31:00.776Z,24.48
2022-07-26T09:33:44.452Z,23.96
2022-07-26T09:36:11.741Z,23.80
2022-07-26T09:38:43.814Z,23.35
2022-07-26T09:41:28.588Z,22.29
2022-07-26T09:44:00.190Z,20.76
2022-07-26T09:46:32.401Z,21.14
2022-07-26T09:49:18.759Z,21.46
2022-07-26T09:51:49.805Z,21.65
2022-07-26T09:54:20.910Z,21.94
2022-07-26T09:56:50.813Z,21.57
2022-07-26T09:59:20.622Z,20.99
2022-07-26T10:01:48.844Z,20.80
2022-07-26T10:04:16.914Z,20.50
2022-07-26T10:06:44.849Z,20.91
2022-07-26T10:09:13.797Z,21.45
2022-07-26T10:12:14.603Z,21.71
2022-07-26T10:14:52.997Z,21.26
2022-07-26T10:17:31.662Z,22.71
2022-07-26T10:20:17.467Z,22.88
2022-07-26T10:22:56.332Z,22.30
2022-07-26T10:25:23.697Z,22.25
2022-07-26T10:27:55.961Z,21.51
2022-07-26T10:30:27.770Z,22.57
2022-07-26T10:33:14.758Z,21.31
2022-07-26T10:35:43.592Z,21.48
2022-07-26T10:38:23.821Z,21.81
2022-07-26T10:41:06.466Z,22.35
2022-07-26T10:43:42.561Z,23.49
2022-07-26T10:46:16.166Z,23.92
2022-07-26T10:49:05.580Z,23.78
2022-07-26T10:51:37.618Z,25.07
2022-07-26T10:54:06.823Z,24.65
2022-07-26T10:56:34.395Z,24.68
2022-07-26T10:59:02.410Z,24.82
2022-07-26T11:01:42.442Z,23.23
2022-07-26T11:04:20.773Z,23.17
2022-07-26T11:07:04.196Z,23.42
2022-07-26T11:09:36.270Z,24.46
2022-07-26T11:12:20.446Z,24.09
2022-07-26T11:14:51.289Z,25.89
2022-07-26T11:17:31.477Z,26.18
2022-07-26T11:20:00.809Z,26.27
2022-07-26T11:22:32.704Z,25.54
2022-07-26T11:24:59.901Z,24.30
2022-07-26T11:27:30.918Z,25.55
2022-07-26T11:30:05.051Z,26.20
2022-07-26T11:32:32.810Z,27.41
2022-07-26T11:35:05.303Z,27.00
2022-07-26T11:40:14.502Z,26.45
2022-07-26T11:42:41.584Z,26.53
2022-07-26T11:45:13.018Z,26.11
2022-07-26T11:47:40.731Z,26.42
2022-07-26T11:50:14.337Z,26.64
2022-07-26T11:52:46.387Z,27.36
2022-07-26T11:55:13.497Z,27.81
2022-07-26T11:57:40.666Z,28.08
2022-07-26T12:00:08.845Z,27.88
2022-07-26T12:02:35.968Z,28.03
2022-07-26T12:05:33.496Z,27.56
2022-07-26T12:08:04.421Z,26.70
2022-07-26T12:10:31.916Z,26.90
2022-07-26T12:13:12.532Z,26.60
2022-07-26T12:15:52.327Z,26.54
2022-07-26T12:18:27.209Z,27.55
2022-07-26T12:21:05.101Z,27.24
2022-07-26T12:23:50.007Z,26.62
2022-07-26T12:26:40.876Z,27.21
2022-07-26T12:29:27.440Z,26.26
2022-07-26T12:32:12.470Z,26.75
2022-07-26T12:37:51.760Z,27.25
2022-07-26T12:43:16.283Z,26.34
2022-07-26T12:45:44.345Z,26.43
2022-07-26T12:48:11.999Z,25.87
2022-07-26T12:50:39.344Z,26.60
2022-07-26T12:53:12.636Z,26.34
2022-07-26T12:55:40.034Z,26.41
2022-07-26T12:58:07.199Z,25.79
2022-07-26T13:00:34.618Z,25.86
2022-07-26T13:03:01.742Z,26.70
2022-07-26T13:05:28.974Z,26.49
2022-07-26T13:07:56.376Z,27.27
2022-07-26T13:10:34.414Z,27.65
2022-07-26T13:13:03.873Z,27.70
2022-07-26T13:15:36.211Z,26.47
2022-07-26T13:18:08.962Z,26.11
2022-07-26T13:20:39.967Z,26.65
2022-07-26T13:23:13.943Z,25.79
2022-07-26T13:25:44.259Z,26.17
2022-07-26T13:28:12.347Z,25.71
2022-07-26T13:30:41.260Z,26.58
2022-07-26T13:33:08.451Z,26.24
2022-07-26T13:35:39.012Z,26.52
2022-07-26T13:38:08.166Z,26.81
2022-07-26T13:40:36.170Z,26.66
2022-07-26T13:43:04.781Z,26.14
2022-07-26T13:45:32.190Z,25.15
2022-07-26T13:47:59.836Z,25.65
2022-07-26T13:50:28.429Z,26.00
2022-07-26T13:52:57.283Z,25.31
2022-07-26T13:55:25.299Z,26.28
2022-07-26T13:57:56.854Z,25.88
2022-07-26T14:00:36.861Z,25.94
2022-07-26T14:03:05.131Z,26.27
2022-07-26T14:05:32.671Z,26.00
2022-07-26T14:08:00.012Z,26.34
2022-07-26T14:10:27.702Z,25.99
2022-07-26T14:15:42.683Z,25.46
2022-07-26T14:18:09.912Z,25.55
2022-07-26T14:20:37.292Z,25.65
2022-07-26T14:23:04.681Z,25.54
2022-07-26T14:25:33.403Z,25.34
2022-07-26T14:28:03.493Z,25.23
2022-07-26T14:33:32.170Z,25.89
2022-07-26T14:36:10.061Z,25.60
2022-07-26T14:38:40.933Z,26.18
2022-07-26T14:41:18.689Z,25.85
2022-07-26T14:43:54.040Z,26.17
2022-07-26T14:46:26.729Z,26.02
2022-07-26T14:48:55.085Z,26.33
2022-07-26T14:51:22.910Z,26.11
2022-07-26T14:53:53.352Z,26.24
2022-07-26T15:01:50.949Z,26.01
2022-07-26T15:04:19.506Z,25.96
2022-07-26T15:06:47.261Z,25.89
2022-07-26T15:09:15.430Z,26.17
2022-07-26T15:12:09.806Z,26.10
2022-07-26T15:14:37.396Z,25.88
2022-07-26T15:17:04.730Z,26.32
2022-07-26T15:19:31.794Z,25.80
2022-07-26T15:22:02.241Z,25.87
2022-07-26T15:24:29.785Z,25.90
2022-07-26T15:27:00.889Z,25.74
2022-07-26T15:29:27.948Z,26.06
2022-07-26T15:31:55.910Z,26.32
2022-07-26T15:34:23.137Z,26.32
2022-07-26T15:36:51.546Z,26.52
2022-07-26T15:39:18.922Z,26.73
2022-07-26T15:41:47.774Z,26.38
2022-07-26T15:44:21.746Z,26.50
2022-07-26T15:46:52.082Z,26.78
2022-07-26T15:49:19.243Z,26.71
2022-07-26T15:51:47.506Z,26.31
2022-07-26T15:54:16.439Z,26.39
2022-07-26T15:56:46.962Z,26.51
2022-07-26T15:59:15.663Z,26.53
2022-07-26T16:01:43.417Z,26.49
2022-07-26T16:04:10.933Z,27.06
2022-07-26T16:06:38.272Z,27.68
2022-07-26T16:09:16.483Z,27.30
2022-07-26T16:11:47.637Z,26.75
2022-07-26T16:14:17.956Z,26.61
2022-07-26T16:16:45.881Z,26.65
2022-07-26T16:19:13.255Z,26.62
2022-07-26T16:21:45.129Z,26.80
2022-07-26T16:24:12.314Z,26.46
2022-07-26T16:26:39.464Z,26.20
2022-07-26T16:29:06.902Z,26.25
2022-07-26T16:31:34.428Z,26.55
2022-07-26T16:34:01.667Z,26.53
2022-07-26T16:36:29.040Z,26.91
2022-07-26T16:38:56.120Z,27.04
2022-07-26T16:41:23.286Z,26.36
2022-07-26T16:43:50.791Z,27.01
2022-07-26T16:46:18.550Z,27.06
2022-07-26T16:48:47.105Z,27.24
2022-07-26T16:51:16.912Z,27.12
2022-07-26T16:53:45.599Z,27.41
2022-07-26T16:56:12.633Z,27.64
2022-07-26T16:58:40.074Z,27.40
2022-07-26T17:01:07.271Z,28.07
2022-07-26T17:03:34.648Z,27.33
2022-07-26T17:06:06.501Z,27.84
2022-07-26T17:08:33.980Z,27.87
2022-07-26T17:11:01.301Z,28.17
2022-07-26T17:13:29.683Z,28.01
2022-07-26T17:15:58.615Z,28.90
2022-07-26T17:18:26.450Z,28.41
2022-07-26T17:20:54.144Z,29.36
2022-07-26T17:23:24.774Z,29.30
2022-07-26T17:25:54.974Z,29.27
2022-07-26T17:28:22.381Z,28.76
2022-07-26T17:30:50.879Z,28.93
2022-07-26T17:33:20.982Z,29.98
2022-07-26T17:35:48.778Z,29.98
2022-07-26T17:41:15.719Z,30.78
2022-07-26T17:43:47.396Z,31.51
2022-07-26T17:46:15.246Z,31.93
2022-07-26T17:48:45.600Z,31.66
2022-07-26T17:51:19.424Z,32.04
2022-07-26T17:53:51.014Z,32.01
2022-07-26T17:56:21.666Z,32.75
2022-07-26T17:58:50.497Z,33.50
2022-07-26T18:01:17.667Z,33.52
2022-07-26T18:03:47.801Z,33.46
2022-07-26T18:06:16.437Z,34.15
2022-07-26T18:08:43.737Z,34.55
2022-07-26T18:11:14.330Z,34.85
2022-07-26T18:13:43.626Z,35.18
2022-07-26T18:16:11.551Z,35.63
2022-07-26T18:18:39.037Z,36.08
2022-07-26T18:21:07.222Z,35.91
2022-07-26T18:24:06.722Z,36.25
2022-07-26T18:26:32.916Z,36.19
2022-07-26T18:29:03.228Z,36.66
2022-07-26T18:31:32.441Z,36.41
2022-07-26T18:34:05.986Z,36.81
2022-07-26T18:36:35.772Z,37.71
2022-07-26T18:39:03.153Z,37.64
2022-07-26T18:41:31.811Z,38.25
2022-07-26T18:44:01.953Z,38.26
2022-07-26T18:46:37.977Z,38.38
2022-07-26T18:49:07.019Z,38.53
2022-07-26T18:51:34.473Z,38.66
2022-07-26T18:54:02.627Z,39.23
2022-07-26T18:56:36.790Z,38.79
2022-07-26T18:59:04.516Z,39.00
2022-07-26T19:01:32.005Z,38.61
2022-07-26T19:04:06.989Z,38.86
2022-07-26T19:06:35.982Z,38.50
2022-07-26T19:09:03.140Z,39.34
2022-07-26T19:11:31.465Z,39.75
2022-07-26T19:14:09.949Z,40.44
2022-07-26T19:16:38.667Z,40.21
2022-07-26T19:19:06.065Z,40.80
2022-07-26T19:21:33.321Z,41.27
2022-07-26T19:24:02.654Z,41.63
2022-07-26T19:26:30.030Z,41.90
2022-07-26T19:28:57.367Z,42.71
2022-07-26T19:31:24.547Z,42.63
2022-07-26T19:33:52.304Z,42.66
2022-07-26T19:36:26.081Z,43.61
2022-07-26T19:38:55.878Z,42.97
2022-07-26T19:41:23.359Z,41.93
2022-07-26T19:43:57.275Z,42.15
2022-07-26T19:46:27.870Z,43.04
2022-07-26T19:48:55.545Z,43.10
2022-07-26T19:51:23.161Z,43.37
2022-07-26T19:53:52.369Z,45.77
2022-07-26T19:56:22.051Z,45.84
2022-07-26T19:58:51.823Z,46.20
2022-07-26T20:01:19.555Z,46.24
2022-07-26T20:03:46.685Z,46.32
2022-07-26T20:06:13.804Z,46.90
2022-07-26T20:08:41.363Z,46.24
2022-07-26T20:11:08.501Z,46.57
2022-07-26T20:13:35.661Z,46.03
2022-07-26T20:16:03.841Z,45.66
2022-07-26T20:18:31.330Z,45.55
2022-07-26T20:20:58.958Z,45.53
2022-07-26T20:23:31.190Z,45.57
2022-07-26T20:25:58.248Z,45.04
2022-07-26T20:28:25.497Z,45.99
2022-07-26T20:30:55.078Z,45.89
2022-07-26T20:33:22.476Z,45.72
2022-07-26T20:35:55.027Z,45.95
2022-07-26T20:38:23.209Z,45.62
2022-07-26T20:40:55.275Z,45.28
2022-07-26T20:43:22.624Z,45.68
2022-07-26T20:45:50.511Z,43.76
2022-07-26T20:48:17.788Z,45.01
2022-07-26T20:50:44.884Z,45.07
2022-07-26T20:53:12.197Z,45.23
2022-07-26T20:55:39.230Z,45.20
2022-07-26T20:58:06.448Z,45.32
2022-07-26T21:00:33.913Z,45.38
2022-07-26T21:03:00.957Z,45.39
2022-07-26T21:05:32.347Z,45.10
2022-07-26T21:08:00.280Z,44.80
2022-07-26T21:10:29.464Z,44.94
2022-07-26T21:13:01.238Z,45.48
2022-07-26T21:15:30.974Z,45.21
2022-07-26T21:17:58.858Z,45.46
2022-07-26T21:20:25.952Z,45.30
2022-07-26T21:22:53.375Z,46.27
2022-07-26T21:25:22.236Z,45.85
2022-07-26T21:27:53.571Z,45.77
2022-07-26T21:30:21.580Z,46.01
2022-07-26T21:32:50.971Z,45.82
2022-07-26T21:35:18.126Z,46.99
2022-07-26T21:37:46.486Z,46.62
2022-07-26T21:40:13.766Z,47.30
2022-07-26T21:42:40.903Z,47.32
2022-07-26T21:45:08.979Z,47.70
2022-07-26T21:47:35.956Z,48.27
2022-07-26T21:50:03.902Z,48.55
2022-07-26T21:52:31.451Z,48.50
2022-07-26T21:54:58.500Z,48.68
2022-07-26T21:57:25.559Z,48.27
2022-07-26T21:59:53.565Z,48.30
2022-07-26T22:02:21.902Z,48.82
2022-07-26T22:04:49.035Z,48.42
2022-07-26T22:07:16.345Z,48.75
2022-07-26T22:09:43.389Z,48.74
2022-07-26T22:12:10.728Z,48.85
2022-07-26T22:17:19.378Z,49.19
2022-07-26T22:19:49.756Z,48.87
2022-07-26T22:22:16.723Z,49.33
2022-07-26T22:24:43.708Z,49.51
2022-07-26T22:27:11.056Z,49.29
2022-07-26T22:29:40.152Z,48.86
2022-07-26T22:32:07.513Z,49.21
2022-07-26T22:34:35.184Z,49.32
2022-07-26T22:37:02.115Z,49.21
2022-07-26T22:39:29.037Z,49.90
2022-07-26T22:42:14.171Z,49.90
2022-07-26T22:44:41.672Z,49.99
2022-07-26T22:47:08.959Z,50.35
2022-07-26T22:49:36.276Z,49.96
2022-07-26T22:52:03.385Z,49.55
2022-07-26T22:54:30.693Z,49.93
2022-07-26T22:56:58.804Z,50.04
2022-07-26T22:59:25.848Z,50.16
2022-07-26T23:01:53.010Z,50.39
2022-07-26T23:04:20.029Z,50.60
2022-07-26T23:06:48.373Z,50.59
2022-07-26T23:09:18.669Z,50.68
2022-07-26T23:11:45.665Z,50.94
2022-07-26T23:14:12.718Z,50.59
2022-07-26T23:16:39.944Z,50.77
2022-07-26T23:19:07.214Z,51.10
2022-07-26T23:21:34.167Z,50.99
2022-07-26T23:24:01.376Z,51.50
2022-07-26T23:26:28.443Z,51.55
2022-07-26T23:28:55.440Z,51.64
2022-07-26T23:31:23.124Z,51.78
2022-07-26T23:33:54.712Z,51.87
2022-07-26T23:36:27.699Z,51.84
2022-07-26T23:38:56.447Z,52.01
2022-07-26T23:41:24.059Z,52.32
2022-07-26T23:43:52.510Z,52.47
2022-07-26T23:46:20.600Z,52.43
2022-07-26T23:48:47.976Z,52.79
2022-07-26T23:51:14.996Z,52.36
2022-07-26T23:53:42.711Z,53.21
2022-07-26T23:56:09.909Z,53.30
2022-07-26T23:58:37.678Z,52.97
